Time;durP1;ratioP1;P1;durP2;ratioP2;P2;SDS_P1;SDS_P2;PMS_P1;PMS_P2;Temp;Humidity;BMP_temperature;BMP_pressure;BME280_temperature;BME280_humidity;BME280_pressure;Samples;Min_cycle;Max_cycle;Signal;HPM_P1;HPM_P2
2023/10/21 00:01:28;;;;;;;11.02;4.43;;;;;;;18.06;56.85;98522.44;5018119;28;20452;-84
2023/10/21 00:03:54;;;;;;;8.13;4.32;;;;;;;18.04;56.68;98521.78;5052251;28;20492;-84
2023/10/21 00:06:20;;;;;;;8.38;4.32;;;;;;;18.02;56.93;98518.47;5016799;28;20044;-84
2023/10/21 00:08:45;;;;;;;7.47;4.40;;;;;;;18.00;56.59;98523.13;5034493;28;20033;-84
2023/10/21 00:11:12;;;;;;;6.43;4.30;;;;;;;17.99;56.75;98524.09;5034630;28;20039;-84
2023/10/21 00:13:38;;;;;;;8.25;4.25;;;;;;;17.96;56.62;98525.25;5034390;28;20569;-83
2023/10/21 00:16:04;;;;;;;7.45;4.75;;;;;;;17.95;56.66;98531.56;5051945;28;20052;-82
2023/10/21 00:18:29;;;;;;;5.28;3.90;;;;;;;17.89;56.75;98526.94;5033868;28;20033;-82
2023/10/21 00:20:55;;;;;;;5.22;4.13;;;;;;;17.90;56.70;98531.25;5001000;28;20049;-82
2023/10/21 00:23:21;;;;;;;8.15;4.40;;;;;;;17.88;56.89;98536.69;5018113;28;20071;-83
2023/10/21 00:25:46;;;;;;;9.90;4.32;;;;;;;17.87;57.04;98528.91;5017952;28;20495;-82
2023/10/21 00:28:12;;;;;;;8.50;4.18;;;;;;;17.84;56.77;98532.69;5017741;28;20033;-84
2023/10/21 00:30:38;;;;;;;6.55;4.43;;;;;;;17.81;56.82;98527.75;5051958;28;20040;-82
2023/10/21 00:33:03;;;;;;;8.68;4.32;;;;;;;17.75;56.84;98523.13;5017551;28;20037;-82
2023/10/21 00:35:31;;;;;;;6.18;3.90;;;;;;;17.72;56.72;98523.47;5034001;28;20571;-83
2023/10/21 00:37:56;;;;;;;6.17;4.13;;;;;;;17.76;56.75;98534.50;5034919;28;20025;-82
2023/10/21 00:40:22;;;;;;;6.40;4.43;;;;;;;17.70;56.79;98523.63;5052008;28;20638;-85
2023/10/21 00:42:48;;;;;;;5.85;4.00;;;;;;;17.72;56.80;98534.03;5034683;28;20155;-85
2023/10/21 00:45:13;;;;;;;8.82;4.40;;;;;;;17.66;56.87;98522.34;5034325;28;20145;-84
2023/10/21 00:47:39;;;;;;;5.80;3.88;;;;;;;17.70;56.80;98536.03;5017400;28;20154;-83
2023/10/21 00:50:06;;;;;;;6.35;4.40;;;;;;;17.68;56.78;98530.09;5001393;28;20032;-84
2023/10/21 00:52:35;;;;;;;5.78;4.05;;;;;;;17.66;56.95;98526.78;5017596;28;20041;-84
2023/10/21 00:55:01;;;;;;;9.18;4.38;;;;;;;17.64;56.78;98523.50;5018498;28;20029;-85
2023/10/21 00:57:27;;;;;;;6.00;3.90;;;;;;;17.64;56.91;98526.94;5022263;28;20123;-84
2023/10/21 00:59:53;;;;;;;7.95;4.05;;;;;;;17.63;57.04;98530.59;5048827;28;20053;-84
2023/10/21 01:02:19;;;;;;;7.55;4.30;;;;;;;17.59;57.05;98529.28;5027750;28;20033;-84
2023/10/21 01:04:44;;;;;;;9.98;4.25;;;;;;;17.60;57.09;98533.56;5038641;28;20514;-84
2023/10/21 01:07:19;;;;;;;6.80;4.20;;;;;;;17.57;56.91;98527.78;5034394;28;20025;-84
2023/10/21 01:09:44;;;;;;;8.07;4.40;;;;;;;17.61;57.29;98529.91;5034935;28;20032;-84
2023/10/21 01:12:10;;;;;;;8.65;4.60;;;;;;;17.62;57.15;98533.41;5052346;28;20032;-84
2023/10/21 01:14:35;;;;;;;6.18;3.70;;;;;;;17.58;57.13;98522.34;5034135;28;20464;-84
2023/10/21 01:17:02;;;;;;;10.85;4.45;;;;;;;17.58;57.22;98534.72;5018566;28;20041;-84
2023/10/21 01:19:30;;;;;;;7.75;4.13;;;;;;;17.59;57.42;98529.28;5037421;28;20094;-84
2023/10/21 01:21:56;;;;;;;6.75;4.22;;;;;;;17.56;57.44;98526.97;5021581;28;20059;-84
2023/10/21 01:24:22;;;;;;;7.50;4.57;;;;;;;17.56;57.22;98519.03;5021208;28;20476;-86
2023/10/21 01:26:47;;;;;;;9.10;4.22;;;;;;;17.49;57.29;98513.63;5055215;28;20036;-84
2023/10/21 01:29:13;;;;;;;7.97;3.97;;;;;;;17.52;57.35;98523.84;5038047;28;20106;-83
2023/10/21 01:31:38;;;;;;;9.20;4.05;;;;;;;17.50;57.43;98525.00;5020785;28;20052;-84
2023/10/21 01:34:04;;;;;;;6.97;4.53;;;;;;;17.49;57.50;98532.09;5055043;28;20029;-84
2023/10/21 01:36:29;;;;;;;10.45;4.10;;;;;;;17.48;57.50;98530.44;5059146;28;20074;-83
2023/10/21 01:38:55;;;;;;;6.57;4.00;;;;;;;17.47;57.61;98538.50;5066073;28;20025;-83
2023/10/21 01:41:20;;;;;;;6.15;3.70;;;;;;;17.43;57.50;98532.75;5063476;28;20399;-82
2023/10/21 01:43:46;;;;;;;8.15;4.22;;;;;;;17.43;57.63;98537.22;5044840;28;20037;-82
2023/10/21 01:46:11;;;;;;;9.10;3.92;;;;;;;17.34;57.54;98531.91;5045476;28;20476;-82
2023/10/21 01:48:37;;;;;;;7.78;4.22;;;;;;;17.41;57.59;98541.81;5040204;28;20033;-83
2023/10/21 01:51:05;;;;;;;6.20;3.70;;;;;;;17.34;57.45;98539.03;5029293;28;20408;-83
2023/10/21 01:53:31;;;;;;;;;;;;;;;17.36;57.64;98537.03;5031659;28;20029;-83
2023/10/21 01:56:03;;;;;;;8.40;4.00;;;;;;;17.24;57.43;98530.47;5059207;28;19912;-81
2023/10/21 01:58:29;;;;;;;7.78;3.97;;;;;;;17.26;57.46;98536.38;5035823;28;20136;-81
2023/10/21 02:00:55;;;;;;;8.40;4.43;;;;;;;17.27;57.47;98544.13;5003797;28;20127;-81
2023/10/21 02:03:20;;;;;;;7.00;4.18;;;;;;;17.26;57.41;98541.66;5054626;28;20464;-82
2023/10/21 02:05:46;;;;;;;9.98;4.63;;;;;;;17.24;57.35;98533.91;5036416;28;20044;-81
2023/10/21 02:08:11;;;;;;;8.00;4.55;;;;;;;17.21;57.31;98539.50;5036548;28;20484;-81
2023/10/21 02:10:41;;;;;;;5.93;4.10;;;;;;;17.20;57.42;98543.13;5020316;28;20044;-82
2023/10/21 02:13:06;;;;;;;8.38;4.40;;;;;;;17.16;57.41;98547.91;5020483;28;20033;-82
2023/10/21 02:15:35;;;;;;;5.20;3.88;;;;;;;17.19;57.40;98557.31;5036438;28;20029;-82
2023/10/21 02:18:02;;;;;;;7.32;4.35;;;;;;;17.19;57.40;98554.69;5036651;28;20040;-82
2023/10/21 02:20:28;;;;;;;7.05;4.32;;;;;;;17.17;57.24;98560.13;5036052;28;20057;-82
2023/10/21 02:22:53;;;;;;;9.13;4.30;;;;;;;17.17;57.44;98556.66;5036685;28;20373;-83
2023/10/21 02:25:19;;;;;;;15.13;4.32;;;;;;;17.16;57.45;98562.94;5036508;28;20487;-84
2023/10/21 02:27:44;;;;;;;7.30;3.95;;;;;;;17.15;57.36;98556.00;5019027;28;20128;-85
2023/10/21 02:30:12;;;;;;;8.00;4.60;;;;;;;17.12;57.45;98551.03;5053927;28;20033;-84
2023/10/21 02:32:38;;;;;;;11.10;4.72;;;;;;;17.12;57.50;98559.78;5036163;28;20037;-85
2023/10/21 02:35:04;;;;;;;6.55;4.05;;;;;;;17.09;57.45;98556.66;5036133;28;20040;-85
2023/10/21 02:37:30;;;;;;;9.55;4.10;;;;;;;17.11;57.56;98560.78;5019898;28;20557;-85
2023/10/21 02:39:55;;;;;;;5.38;4.18;;;;;;;17.11;57.70;98559.94;5036640;28;20037;-84
2023/10/21 02:42:21;;;;;;;8.48;4.32;;;;;;;17.09;57.74;98561.91;5054225;28;20029;-84
2023/10/21 02:44:46;;;;;;;6.75;4.30;;;;;;;17.08;57.58;98562.91;5003244;28;20040;-84
2023/10/21 02:47:12;;;;;;;7.05;4.20;;;;;;;17.12;57.69;98562.41;5019557;28;20593;-85
2023/10/21 02:49:38;;;;;;;7.97;4.03;;;;;;;17.09;57.68;98567.19;5036204;28;20480;-83
2023/10/21 02:52:03;;;;;;;6.88;4.50;;;;;;;17.10;57.67;98574.94;5035812;28;20496;-83
2023/10/21 02:54:30;;;;;;;8.07;4.53;;;;;;;17.12;57.83;98572.16;5036478;28;20053;-83
2023/10/21 02:56:56;;;;;;;7.88;4.03;;;;;;;17.11;57.66;98576.59;5036351;28;20041;-83
2023/10/21 02:59:21;;;;;;;9.73;3.92;;;;;;;17.07;58.00;98575.28;5019444;28;20506;-83
2023/10/21 03:01:48;;;;;;;7.85;4.13;;;;;;;17.10;57.88;98571.50;5019391;28;20033;-82
2023/10/21 03:04:14;;;;;;;8.23;4.80;;;;;;;17.09;57.96;98575.91;5035832;28;20029;-82
2023/10/21 03:06:40;;;;;;;7.05;4.30;;;;;;;17.07;57.87;98572.63;5035788;28;20468;-82
2023/10/21 03:09:06;;;;;;;6.00;4.13;;;;;;;17.07;57.83;98595.56;5036195;28;20040;-82
2023/10/21 03:11:32;;;;;;;5.57;4.18;;;;;;;17.04;57.87;98591.41;5019927;28;20029;-82
2023/10/21 03:13:57;;;;;;;8.18;4.20;;;;;;;17.06;57.88;98593.88;5035477;28;20086;-82
2023/10/21 03:16:23;;;;;;;10.18;4.30;;;;;;;17.03;58.00;98600.34;5035534;28;20025;-82
2023/10/21 03:18:49;;;;;;;6.63;4.38;;;;;;;17.01;58.02;98594.38;5035477;28;20032;-84
2023/10/21 03:21:14;;;;;;;6.85;4.05;;;;;;;16.97;58.00;98587.78;5018630;28;20103;-85
2023/10/21 03:23:40;;;;;;;7.03;4.15;;;;;;;16.97;58.12;98590.44;5019413;28;20036;-86
2023/10/21 03:26:06;;;;;;;8.02;4.28;;;;;;;16.98;58.09;98594.69;5035282;28;20031;-82
2023/10/21 03:28:32;;;;;;;7.43;4.50;;;;;;;16.98;58.04;98597.31;5052935;28;20059;-82
2023/10/21 03:30:58;;;;;;;6.57;3.92;;;;;;;16.96;58.05;98601.94;5002352;28;20108;-82
2023/10/21 03:33:24;;;;;;;8.60;4.05;;;;;;;16.91;58.12;98599.78;5018682;28;20438;-82
2023/10/21 03:35:51;;;;;;;8.40;4.30;;;;;;;16.92;58.18;98598.81;5018779;28;20117;-84
2023/10/21 03:38:17;;;;;;;8.30;4.35;;;;;;;16.91;58.28;98598.97;5035586;28;20028;-84
2023/10/21 03:40:43;;;;;;;6.25;4.38;;;;;;;16.91;58.21;98599.78;5052690;28;20123;-83
2023/10/21 03:43:08;;;;;;;7.80;4.57;;;;;;;16.89;58.24;98593.88;5034139;28;20063;-84
2023/10/21 03:45:36;;;;;;;7.57;4.03;;;;;;;16.87;58.23;98597.63;5018138;28;20043;-83
2023/10/21 03:48:03;;;;;;;10.55;4.60;;;;;;;16.79;58.30;98585.22;5034885;28;20033;-84
2023/10/21 03:50:28;;;;;;;9.52;4.00;;;;;;;16.84;58.21;98596.13;5002443;28;20029;-84
2023/10/21 03:52:54;;;;;;;9.02;4.63;;;;;;;16.80;58.32;98589.53;5018646;28;20063;-84
2023/10/21 03:55:19;;;;;;;6.75;4.15;;;;;;;16.79;58.47;98593.97;5034921;28;20033;-84
2023/10/21 03:57:48;;;;;;;6.32;4.10;;;;;;;16.82;58.22;98596.28;5017723;28;20036;-80
2023/10/21 04:00:14;;;;;;;7.53;3.88;;;;;;;16.81;58.27;98593.81;5052680;28;20429;-83
2023/10/21 04:02:40;;;;;;;6.60;4.07;;;;;;;16.75;58.36;98586.56;5034600;28;20021;-83
2023/10/21 04:05:08;;;;;;;5.60;4.38;;;;;;;16.76;58.41;98585.53;5034809;28;20380;-83
2023/10/21 04:07:34;;;;;;;8.13;4.18;;;;;;;16.75;58.35;98581.28;5052487;28;20025;-77
2023/10/21 04:09:59;;;;;;;12.75;4.28;;;;;;;16.77;58.37;98582.75;5035251;28;20114;-89
2023/10/21 04:12:25;;;;;;;7.88;3.90;;;;;;;16.77;58.51;98580.09;5002720;28;20475;-88
2023/10/21 04:14:51;;;;;;;9.98;4.35;;;;;;;16.78;58.49;98581.78;5034811;28;20108;-85
2023/10/21 04:17:16;;;;;;;10.35;4.20;;;;;;;16.76;58.55;98582.91;5052303;28;20029;-86
2023/10/21 04:19:42;;;;;;;6.95;4.70;;;;;;;16.76;58.39;98583.75;5001728;28;20408;-85
2023/10/21 04:22:08;;;;;;;9.85;4.68;;;;;;;16.74;58.65;98579.63;5035187;28;20053;-84
2023/10/21 04:24:33;;;;;;;5.97;4.45;;;;;;;16.71;58.62;98580.75;5052356;28;20041;-90
2023/10/21 04:26:59;;;;;;;8.10;4.72;;;;;;;16.73;58.50;98578.81;5052488;28;20111;-86
2023/10/21 04:29:24;;;;;;;9.52;4.65;;;;;;;16.73;58.58;98581.44;5052164;28;20039;-86
2023/10/21 04:31:49;;;;;;;7.03;4.13;;;;;;;16.73;58.58;98584.06;5052124;28;20029;-87
2023/10/21 04:34:15;;;;;;;10.10;4.40;;;;;;;16.74;58.49;98582.25;5051982;28;20076;-84
2023/10/21 04:36:40;;;;;;;8.82;4.50;;;;;;;16.73;58.35;98578.81;5051790;28;20060;-81
2023/10/21 04:39:07;;;;;;;11.52;4.43;;;;;;;16.74;58.35;98584.88;5052120;28;20048;-81
2023/10/21 04:41:32;;;;;;;8.02;4.25;;;;;;;16.71;58.41;98574.66;5034553;28;20120;-83
2023/10/21 04:43:58;;;;;;;7.63;4.32;;;;;;;16.76;58.05;98581.13;5018197;28;20109;-84
2023/10/21 04:46:24;;;;;;;6.72;4.10;;;;;;;16.78;58.25;98592.31;5034320;28;20076;-83
2023/10/21 04:48:51;;;;;;;6.07;4.18;;;;;;;16.85;58.23;98594.31;5052412;28;20029;-83
2023/10/21 04:51:16;;;;;;;6.72;4.30;;;;;;;16.90;57.88;98592.03;5018796;28;20052;-83
2023/10/21 04:53:42;;;;;;;6.45;4.35;;;;;;;17.00;57.76;98603.28;5022181;28;20068;-85
2023/10/21 04:56:07;;;;;;;7.32;3.92;;;;;;;17.08;57.50;98608.56;5021981;28;20392;-86
2023/10/21 04:58:34;;;;;;;6.97;4.45;;;;;;;17.20;57.32;98617.00;5021305;28;20052;-84
2023/10/21 05:00:59;;;;;;;7.25;4.88;;;;;;;17.33;56.84;98620.00;5039457;28;20033;-77
2023/10/21 05:03:25;;;;;;;6.30;4.45;;;;;;;17.49;56.56;98620.97;5056310;28;20044;-76
2023/10/21 05:05:50;;;;;;;5.30;3.90;;;;;;;17.58;56.34;98624.44;5055329;28;20428;-74
2023/10/21 05:08:16;;;;;;;6.18;4.20;;;;;;;17.69;56.20;98621.47;5037801;28;20416;-76
2023/10/21 05:10:41;;;;;;;15.13;4.47;;;;;;;17.94;55.67;98630.25;5021431;28;20028;-75
2023/10/21 05:13:06;;;;;;;6.57;3.40;;;;;;;18.50;57.99;98634.72;5023121;28;20033;-75
2023/10/21 05:15:32;;;;;;;8.55;3.45;;;;;;;18.97;57.35;98631.25;5021145;28;20029;-75
2023/10/21 05:17:57;;;;;;;10.07;4.00;;;;;;;19.34;55.27;98632.38;5020806;28;20179;-75
2023/10/21 05:20:23;;;;;;;18.17;3.83;;;;;;;19.68;55.96;98634.56;5004194;28;20056;-72
2023/10/21 05:22:49;;;;;;;9.57;3.25;;;;;;;20.32;54.92;98632.53;5021055;28;20033;-76
2023/10/21 05:25:14;;;;;;;9.13;3.88;;;;;;;20.70;52.43;98635.94;5020859;28;20033;-75
2023/10/21 05:27:40;;;;;;;12.48;3.90;;;;;;;21.05;50.90;98632.69;5020843;28;20048;-75
2023/10/21 05:30:06;;;;;;;6.43;3.60;;;;;;;21.38;50.16;98635.69;5055181;28;20033;-77
2023/10/21 05:32:31;;;;;;;7.15;3.83;;;;;;;21.77;48.97;98634.41;5036202;28;20037;-75
2023/10/21 05:34:57;;;;;;;5.63;3.22;;;;;;;22.17;47.95;98634.72;5037161;28;20051;-75
2023/10/21 05:37:22;;;;;;;9.60;3.60;;;;;;;22.58;47.09;98646.44;5054747;28;20033;-75
2023/10/21 05:39:49;;;;;;;17.35;3.35;;;;;;;22.94;48.36;98650.69;5041100;28;20040;-78
2023/10/21 05:42:15;;;;;;;13.50;3.20;;;;;;;23.48;47.42;98646.34;5021304;28;20068;-77
2023/10/21 05:44:40;;;;;;;10.63;3.28;;;;;;;23.89;45.15;98655.22;5020096;28;20065;-81
2023/10/21 05:47:06;;;;;;;14.50;3.45;;;;;;;24.28;45.25;98654.38;5020505;28;20025;-77
2023/10/21 05:49:31;;;;;;;8.93;3.05;;;;;;;24.76;43.80;98657.78;5036477;28;20056;-78
2023/10/21 05:51:57;;;;;;;11.57;2.92;;;;;;;25.23;42.56;98658.38;5020644;28;20036;-78
2023/10/21 05:54:23;;;;;;;14.43;2.92;;;;;;;25.64;41.47;98654.44;5036789;28;20483;-77
2023/10/21 05:56:48;;;;;;;9.85;2.88;;;;;;;26.07;40.30;98661.72;5019790;28;20040;-78
2023/10/21 05:59:14;;;;;;;18.27;3.00;;;;;;;26.43;39.26;98657.47;5019818;28;20041;-78
2023/10/21 06:01:39;;;;;;;8.82;3.10;;;;;;;26.85;38.29;98667.53;5036705;28;20086;-78
2023/10/21 06:04:05;;;;;;;10.63;3.83;;;;;;;27.11;37.34;98662.91;5036374;28;20036;-72
2023/10/21 06:06:30;;;;;;;25.90;7.80;;;;;;;27.10;37.33;98667.44;5054628;28;20047;-70
2023/10/21 06:08:56;;;;;;;18.75;6.03;;;;;;;27.05;37.62;98670.78;5054216;28;20541;-72
2023/10/21 06:11:22;;;;;;;17.67;5.13;;;;;;;27.17;37.10;98672.72;5054259;28;20028;-71
2023/10/21 06:13:48;;;;;;;28.60;6.15;;;;;;;27.24;36.24;98660.84;5035325;28;20401;-73
2023/10/21 06:16:13;;;;;;;23.02;5.45;;;;;;;27.48;36.52;98668.19;5036949;28;20105;-73
2023/10/21 06:18:40;;;;;;;14.48;4.90;;;;;;;27.70;36.10;98665.78;5019322;28;20491;-73
2023/10/21 06:21:06;;;;;;;15.98;4.45;;;;;;;27.85;34.60;98668.03;5032409;28;20136;-72
2023/10/21 06:23:31;;;;;;;21.55;4.80;;;;;;;27.99;34.76;98666.81;5033033;28;20034;-72
2023/10/21 06:25:57;;;;;;;11.10;3.72;;;;;;;28.22;34.72;98675.91;5036841;28;20033;-76
2023/10/21 06:28:23;;;;;;;10.65;4.05;;;;;;;27.90;33.15;98677.03;5016260;28;20033;-76
2023/10/21 06:30:48;;;;;;;14.07;4.30;;;;;;;27.92;33.11;98688.31;5016304;28;20649;-80
2023/10/21 06:33:14;;;;;;;11.65;3.80;;;;;;;28.03;32.80;98684.06;5016340;28;20107;-74
2023/10/21 06:35:39;;;;;;;18.55;3.70;;;;;;;28.13;32.61;98683.47;5033850;28;20412;-74
2023/10/21 06:38:08;;;;;;;18.20;3.85;;;;;;;28.31;32.53;98693.28;5015655;28;20038;-72
2023/10/21 06:40:34;;;;;;;13.73;4.07;;;;;;;28.68;33.35;98693.84;5032075;28;20041;-74
2023/10/21 06:43:00;;;;;;;18.67;4.93;;;;;;;29.09;32.68;98690.38;5015985;28;20032;-75
2023/10/21 06:45:26;;;;;;;10.90;4.40;;;;;;;29.46;31.69;98690.84;4999753;28;20039;-74
2023/10/21 06:47:51;;;;;;;26.25;4.40;;;;;;;30.09;31.66;98696.19;5032750;28;20108;-74
2023/10/21 06:50:17;;;;;;;25.55;4.43;;;;;;;30.82;30.87;98705.09;5015862;28;20389;-74
2023/10/21 06:52:43;;;;;;;18.60;4.55;;;;;;;31.80;28.98;98698.06;5033558;28;20040;-75
2023/10/21 06:55:09;;;;;;;12.85;3.63;;;;;;;33.07;27.34;98698.31;5015983;28;20030;-77
2023/10/21 06:57:34;;;;;;;13.32;3.97;;;;;;;33.95;25.79;98705.50;4999477;28;20067;-79
2023/10/21 07:00:00;;;;;;;12.85;3.95;;;;;;;34.58;24.24;98702.44;5015898;28;20033;-78
2023/10/21 07:02:25;;;;;;;13.82;4.10;;;;;;;34.88;24.63;98697.22;5032301;28;20538;-76
2023/10/21 07:04:51;;;;;;;14.77;4.00;;;;;;;35.45;23.58;98700.47;5032180;28;20137;-77
2023/10/21 07:07:16;;;;;;;16.55;3.80;;;;;;;35.76;23.20;98700.28;5032309;28;20396;-78
2023/10/21 07:09:42;;;;;;;12.27;3.58;;;;;;;36.00;22.80;98705.78;5033539;28;20480;-78
2023/10/21 07:12:07;;;;;;;14.52;3.95;;;;;;;36.08;22.74;98698.91;5032320;28;20033;-82
2023/10/21 07:14:33;;;;;;;10.65;3.60;;;;;;;35.94;23.28;98706.91;5016392;28;20066;-81
2023/10/21 07:17:00;;;;;;;13.88;3.80;;;;;;;35.63;23.59;98707.94;5013011;28;20030;-77
2023/10/21 07:19:26;;;;;;;9.48;3.75;;;;;;;35.19;24.13;98700.59;5011267;28;20126;-78
2023/10/21 07:21:51;;;;;;;13.65;4.38;;;;;;;34.82;24.33;98704.56;5013230;28;20033;-77
2023/10/21 07:24:17;;;;;;;12.82;4.55;;;;;;;34.55;25.30;98702.19;5030580;28;20167;-76
2023/10/21 07:26:43;;;;;;;11.98;4.43;;;;;;;34.14;26.09;98708.47;4997313;28;20056;-77
2023/10/21 07:29:08;;;;;;;10.30;4.25;;;;;;;33.87;26.39;98711.47;5015133;28;20468;-76
2023/10/21 07:31:34;;;;;;;9.10;3.83;;;;;;;33.62;26.80;98713.06;4999137;28;20041;-76
2023/10/21 07:34:00;;;;;;;9.73;3.97;;;;;;;33.53;26.47;98712.78;4999007;28;20039;-75
2023/10/21 07:36:25;;;;;;;10.48;3.95;;;;;;;33.32;27.04;98706.53;4998239;28;20043;-84
2023/10/21 07:38:52;;;;;;;11.38;3.40;;;;;;;33.51;27.42;98709.53;4999065;28;20029;-81
2023/10/21 07:41:17;;;;;;;20.48;3.95;;;;;;;33.62;26.44;98709.53;5015228;28;20244;-78
2023/10/21 07:43:43;;;;;;;20.95;4.45;;;;;;;33.84;26.68;98712.84;5030333;28;20500;-82
2023/10/21 07:46:08;;;;;;;13.75;4.18;;;;;;;34.05;26.14;98713.63;5013583;28;20033;-79
2023/10/21 07:48:34;;;;;;;14.55;4.32;;;;;;;34.24;25.57;98708.50;5014060;28;20037;-81
2023/10/21 07:50:59;;;;;;;13.80;3.67;;;;;;;34.39;25.62;98709.56;5031777;28;20040;-81
2023/10/21 07:53:25;;;;;;;16.10;3.40;;;;;;;34.55;25.68;98702.19;5014579;28;20040;-86
2023/10/21 07:55:52;;;;;;;12.33;3.50;;;;;;;34.70;25.38;98701.34;4997495;28;20045;-78
2023/10/21 07:58:18;;;;;;;18.23;3.83;;;;;;;34.80;25.08;98704.03;5014697;28;20480;-84
2023/10/21 08:00:45;;;;;;;19.70;4.13;;;;;;;34.88;25.18;98705.38;5017073;28;20040;-87
2023/10/21 08:03:10;;;;;;;17.67;3.75;;;;;;;34.77;25.34;98708.09;5005894;28;20064;-86
2023/10/21 08:05:36;;;;;;;9.32;3.47;;;;;;;34.79;25.33;98708.66;4985354;28;20037;-84
2023/10/21 08:08:03;;;;;;;10.15;3.88;;;;;;;34.69;24.96;98702.44;5000439;28;20057;-85
2023/10/21 08:10:29;;;;;;;22.95;3.90;;;;;;;34.58;25.21;98704.34;5006021;28;20407;-85
2023/10/21 08:12:55;;;;;;;12.90;3.60;;;;;;;34.53;25.26;98702.47;5002277;28;20030;-82
2023/10/21 08:15:20;;;;;;;16.05;3.72;;;;;;;34.45;25.13;98710.38;5019725;28;20034;-80
2023/10/21 08:17:46;;;;;;;9.63;3.67;;;;;;;34.48;26.04;98696.28;5035711;28;20029;-82
2023/10/21 08:20:11;;;;;;;15.90;3.70;;;;;;;34.44;25.71;98706.81;5036260;28;20049;-83
2023/10/21 08:22:37;;;;;;;23.65;4.40;;;;;;;34.34;26.92;98709.56;5013725;28;20492;-75
2023/10/21 08:25:02;;;;;;;22.40;4.50;;;;;;;34.02;26.72;98708.75;5031959;28;20393;-79
2023/10/21 08:27:28;;;;;;;24.70;4.55;;;;;;;33.84;27.57;98703.88;5033950;28;20029;-76
2023/10/21 08:30:14;;;;;;;11.38;4.22;;;;;;;33.80;27.19;98705.53;5035798;28;20417;-87
2023/10/21 08:32:40;;;;;;;19.13;4.15;;;;;;;33.76;26.88;98697.13;5019814;28;20415;-79
2023/10/21 08:35:06;;;;;;;14.90;4.35;;;;;;;33.23;27.84;98700.00;5035428;28;20416;-77
2023/10/21 08:37:32;;;;;;;12.60;4.65;;;;;;;33.14;27.93;98698.88;5035139;28;20021;-77
2023/10/21 08:39:57;;;;;;;16.05;4.97;;;;;;;33.21;27.85;98695.94;5038473;28;20132;-76
2023/10/21 08:42:26;;;;;;;21.40;4.18;;;;;;;33.46;27.91;98697.88;5001335;28;20031;-76
2023/10/21 08:44:51;;;;;;;21.90;4.68;;;;;;;33.47;27.62;98691.41;5001119;28;20064;-75
2023/10/21 08:47:17;;;;;;;17.88;4.97;;;;;;;33.63;26.58;98698.44;5000925;28;20112;-76
2023/10/21 08:49:47;;;;;;;14.43;4.07;;;;;;;33.74;26.29;98704.69;4985340;28;20130;-83
2023/10/21 08:52:13;;;;;;;16.85;4.60;;;;;;;33.37;26.07;98689.50;4986034;28;20436;-75
2023/10/21 08:54:41;;;;;;;17.08;4.95;;;;;;;33.29;27.08;98695.41;5001070;28;20463;-75
2023/10/21 08:57:06;;;;;;;12.45;4.82;;;;;;;33.98;25.88;98688.72;4984734;28;20033;-75
2023/10/21 08:59:32;;;;;;;18.90;4.78;;;;;;;34.46;25.34;98685.69;5000416;28;20087;-72
2023/10/21 09:01:58;;;;;;;17.50;4.20;;;;;;;34.66;24.76;98687.50;4984623;28;20038;-75
2023/10/21 09:04:23;;;;;;;14.07;4.38;;;;;;;34.72;24.77;98685.59;5017169;28;20491;-73
2023/10/21 09:06:59;;;;;;;17.02;4.75;;;;;;;34.74;24.81;98681.56;5000674;28;20041;-75
2023/10/21 09:09:28;;;;;;;10.35;4.15;;;;;;;34.76;25.36;98684.81;5034397;28;20033;-81
2023/10/21 09:12:10;;;;;;;16.52;4.50;;;;;;;34.75;24.33;98680.47;4985243;28;20578;-83
2023/10/21 09:14:58;;;;;;;16.27;4.57;;;;;;;34.64;25.32;98678.06;5017335;28;20036;-81
2023/10/21 09:17:34;;;;;;;16.08;4.15;;;;;;;34.37;25.36;98680.03;5019308;28;20041;-85
2023/10/21 09:20:01;;;;;;;12.60;4.45;;;;;;;34.43;25.71;98680.84;5034253;28;20415;-82
2023/10/21 09:22:27;;;;;;;14.00;4.68;;;;;;;34.49;24.82;98677.03;5017029;28;20025;-91
2023/10/21 09:25:16;;;;;;;9.17;4.07;;;;;;;34.50;25.21;98669.69;5000840;28;20045;-77
2023/10/21 09:27:54;;;;;;;15.50;3.78;;;;;;;34.44;25.78;98666.19;5000365;28;20036;-77
2023/10/21 09:30:20;;;;;;;12.43;4.20;;;;;;;34.63;25.47;98669.09;5034935;28;20031;-75
2023/10/21 09:32:46;;;;;;;15.35;4.30;;;;;;;34.84;25.14;98669.88;5016273;28;20041;-77
2023/10/21 09:35:25;;;;;;;16.20;4.28;;;;;;;35.02;25.16;98659.47;4999990;28;20038;-78
2023/10/21 09:37:50;;;;;;;28.10;5.47;;;;;;;35.09;25.18;98666.22;5038181;23;20051;-78
2023/10/21 09:40:16;;;;;;;28.50;5.25;;;;;;;35.10;24.76;98669.72;5072685;28;20037;-76
2023/10/21 09:42:42;;;;;;;17.63;4.95;;;;;;;35.02;24.85;98668.41;5074225;28;20414;-81
2023/10/21 09:45:09;;;;;;;22.27;6.05;;;;;;;35.01;25.27;98660.56;5055733;28;20035;-74
2023/10/21 09:47:38;;;;;;;40.38;6.45;;;;;;;35.12;25.18;98662.09;5039631;28;20445;-78
2023/10/21 09:50:06;;;;;;;30.02;5.93;;;;;;;35.10;25.06;98661.59;5072569;28;20044;-76
2023/10/21 09:52:37;;;;;;;;;;;;;;;35.09;24.65;98660.78;5056668;28;20028;-75
2023/10/21 09:55:07;;;;;;;25.65;5.10;;;;;;;35.15;24.58;98650.69;5073878;28;19942;-76
2023/10/21 09:57:36;;;;;;;17.42;4.97;;;;;;;35.23;24.66;98650.09;5055581;28;20032;-76
2023/10/21 10:00:03;;;;;;;21.65;4.90;;;;;;;35.27;24.83;98645.78;5055786;28;20544;-77
2023/10/21 10:02:28;;;;;;;20.17;4.97;;;;;;;35.30;24.83;98652.56;5056325;28;20028;-74
2023/10/21 10:04:54;;;;;;;18.75;4.93;;;;;;;35.33;24.81;98655.50;5056006;28;20059;-78
2023/10/21 10:07:20;;;;;;;12.00;4.72;;;;;;;35.30;24.81;98645.22;5055252;28;20040;-77
2023/10/21 10:09:45;;;;;;;22.92;5.10;;;;;;;35.32;24.98;98647.63;5071979;28;20060;-76
2023/10/21 10:12:23;;;;;;;24.80;6.60;;;;;;;35.35;25.00;98646.28;5072128;28;20037;-77
2023/10/21 10:14:48;;;;;;;22.77;5.88;;;;;;;35.27;24.71;98647.69;5055627;28;20028;-76
2023/10/21 10:17:34;;;;;;;21.75;6.32;;;;;;;35.26;25.35;98641.44;5072142;28;20035;-74
2023/10/21 10:20:00;;;;;;;24.17;6.63;;;;;;;35.02;24.96;98637.78;5071867;28;20433;-75
2023/10/21 10:22:30;;;;;;;18.02;6.85;;;;;;;35.01;25.36;98628.81;5055317;28;20032;-75
2023/10/21 10:24:56;;;;;;;20.48;6.63;;;;;;;35.04;25.42;98625.53;5038830;28;20212;-76
2023/10/21 10:28:13;;;;;;;21.33;7.05;;;;;;;35.02;25.31;98624.22;5055399;28;20024;-78
2023/10/21 10:30:43;;;;;;;16.08;5.45;;;;;;;34.92;24.97;98625.91;5011623;28;20136;-78
2023/10/21 10:33:15;;;;;;;17.42;5.65;;;;;;;34.84;25.35;98617.53;4993950;28;20050;-77
2023/10/21 10:35:56;;;;;;;18.83;5.50;;;;;;;34.75;25.46;98620.03;4979019;28;20046;-77
2023/10/21 10:38:24;;;;;;;14.30;5.00;;;;;;;34.65;25.25;98611.91;5001401;28;20251;-76
2023/10/21 10:41:11;;;;;;;10.35;4.50;;;;;;;34.52;25.79;98608.72;5011011;28;20132;-77
2023/10/21 10:43:43;;;;;;;13.63;4.55;;;;;;;34.36;25.54;98609.84;5011107;28;20036;-77
2023/10/21 10:46:09;;;;;;;14.45;5.18;;;;;;;34.27;26.10;98606.09;5010908;28;20046;-78
2023/10/21 10:48:36;;;;;;;10.85;4.82;;;;;;;34.19;26.11;98602.03;4994440;28;20128;-79
2023/10/21 10:51:10;;;;;;;12.43;5.20;;;;;;;34.02;26.51;98602.34;4994621;28;20038;-77
2023/10/21 10:53:35;;;;;;;10.70;4.55;;;;;;;33.85;26.00;98597.25;4979032;28;20786;-79
2023/10/21 10:56:01;;;;;;;15.23;4.70;;;;;;;33.72;26.10;98596.72;5010599;28;20080;-79
2023/10/21 10:58:27;;;;;;;15.48;4.35;;;;;;;33.62;25.97;98595.88;4994564;28;20055;-79
2023/10/21 11:00:52;;;;;;;11.82;5.10;;;;;;;33.46;26.82;98595.06;4994925;28;20076;-79
2023/10/21 11:03:29;;;;;;;14.15;4.00;;;;;;;33.22;25.94;98602.91;4994340;28;20025;-78
2023/10/21 11:05:55;;;;;;;11.07;4.57;;;;;;;33.04;26.80;98601.50;5031140;28;20120;-85
2023/10/21 11:08:21;;;;;;;10.75;4.07;;;;;;;32.79;27.46;98597.66;5034829;28;20104;-72
2023/10/21 11:10:47;;;;;;;10.32;4.05;;;;;;;32.47;27.74;98587.81;5052433;28;20116;-74
2023/10/21 11:13:12;;;;;;;15.02;4.25;;;;;;;32.16;28.11;98587.66;5050666;28;20187;-74
2023/10/21 11:15:47;;;;;;;12.82;4.07;;;;;;;31.92;28.58;98588.03;5067359;28;20071;-73
2023/10/21 11:18:12;;;;;;;12.10;3.92;;;;;;;31.69;28.17;98581.16;5034335;28;20104;-75
2023/10/21 11:20:48;;;;;;;11.57;4.10;;;;;;;31.45;28.78;98583.34;5051264;28;20124;-74
2023/10/21 11:23:23;;;;;;;11.90;4.32;;;;;;;31.20;28.93;98584.78;5050999;28;20083;-75
2023/10/21 11:25:57;;;;;;;10.00;3.70;;;;;;;31.08;29.22;98583.31;5051185;28;20032;-75
2023/10/21 11:28:24;;;;;;;13.25;4.40;;;;;;;30.92;29.04;98580.41;5050874;28;20495;-74